Time;durP1;ratioP1;P1;durP2;ratioP2;P2;SDS_P1;SDS_P2;PMS_P1;PMS_P2;Temp;Humidity;BMP_temperature;BMP_pressure;BME280_temperature;BME280_humidity;BME280_pressure;Samples;Min_cycle;Max_cycle;Signal;HPM_P1;HPM_P2
2021/05/05 00:00:21;;;;;;;2.30;0.73;;;8.20;99.90;;;;;;5110288;28;20647;-88
2021/05/05 00:02:48;;;;;;;1.80;0.53;;;8.20;99.90;;;;;;5107111;28;21716;-89
2021/05/05 00:05:15;;;;;;;1.33;1.07;;;8.20;99.90;;;;;;5104781;28;20679;-89
2021/05/05 00:07:42;;;;;;;2.73;0.90;;;8.20;99.90;;;;;;5102463;28;20659;-91
2021/05/05 00:10:11;;;;;;;0.90;0.57;;;8.20;99.90;;;;;;5107473;28;20663;-91
2021/05/05 00:12:37;;;;;;;1.03;0.70;;;8.20;99.90;;;;;;5105821;28;20630;-90
2021/05/05 00:15:06;;;;;;;3.13;0.70;;;8.20;99.90;;;;;;5106864;28;20745;-90
2021/05/05 00:17:32;;;;;;;1.00;0.60;;;8.10;99.90;;;;;;5105475;28;20994;-89
2021/05/05 00:19:58;;;;;;;2.00;0.70;;;8.10;99.90;;;;;;5107417;28;20653;-90
2021/05/05 00:22:25;;;;;;;1.43;0.60;;;8.20;99.90;;;;;;5108250;28;21169;-89
2021/05/05 00:24:52;;;;;;;1.03;0.60;;;8.10;99.90;;;;;;5106606;28;20955;-90
2021/05/05 00:27:19;;;;;;;0.90;0.73;;;8.10;99.90;;;;;;5104004;28;20663;-90
2021/05/05 00:29:45;;;;;;;2.23;0.90;;;8.10;99.90;;;;;;5110786;28;20631;-91
2021/05/05 00:32:13;;;;;;;2.50;0.80;;;8.10;99.90;;;;;;5112445;28;20623;-92
2021/05/05 00:34:39;;;;;;;1.33;1.00;;;8.10;99.90;;;;;;5134208;28;20635;-91
2021/05/05 00:37:05;;;;;;;2.70;1.17;;;8.20;99.90;;;;;;5130186;27;20615;-91
2021/05/05 00:39:32;;;;;;;1.90;0.93;;;8.10;99.90;;;;;;5119614;28;20664;-91
2021/05/05 00:41:59;;;;;;;4.33;1.20;;;8.00;99.90;;;;;;5109362;28;20626;-90
2021/05/05 00:44:25;;;;;;;2.20;0.80;;;8.10;99.90;;;;;;5108438;28;20615;-90
2021/05/05 00:46:55;;;;;;;1.87;1.00;;;7.90;99.90;;;;;;5114474;27;20661;-91
2021/05/05 00:49:21;;;;;;;1.87;1.40;;;8.00;99.90;;;;;;5106605;28;20634;-91
2021/05/05 00:51:47;;;;;;;5.13;1.10;;;8.00;99.90;;;;;;5116414;27;20629;-89
2021/05/05 00:54:14;;;;;;;2.73;0.80;;;8.10;99.90;;;;;;5112194;28;21138;-91
2021/05/05 00:56:40;;;;;;;2.90;1.30;;;8.10;99.90;;;;;;5108998;28;20685;-90
2021/05/05 00:59:07;;;;;;;3.83;1.10;;;8.10;99.90;;;;;;5111415;28;20627;-89
2021/05/05 01:01:34;;;;;;;1.63;1.00;;;8.10;99.90;;;;;;5110734;28;20965;-90
2021/05/05 01:04:01;;;;;;;2.40;1.10;;;8.10;99.90;;;;;;5111170;28;20639;-89
2021/05/05 01:06:27;;;;;;;1.70;1.23;;;8.00;99.90;;;;;;5110183;27;20662;-90
2021/05/05 01:08:54;;;;;;;3.70;1.37;;;7.90;99.90;;;;;;5109691;28;20603;-90
2021/05/05 01:11:20;;;;;;;1.67;0.90;;;7.90;99.90;;;;;;5111281;28;20663;-90
2021/05/05 01:13:47;;;;;;;3.90;1.17;;;7.80;99.90;;;;;;5108600;28;20639;-90
2021/05/05 01:16:15;;;;;;;1.87;1.03;;;7.90;99.90;;;;;;5115660;27;20626;-90
2021/05/05 01:18:42;;;;;;;2.23;0.97;;;7.80;99.90;;;;;;5111091;28;20964;-89
2021/05/05 01:21:10;;;;;;;1.90;1.17;;;7.80;99.90;;;;;;5111137;28;20759;-90
2021/05/05 01:23:36;;;;;;;2.87;0.90;;;7.90;99.90;;;;;;5106995;28;20619;-90
2021/05/05 01:26:03;;;;;;;1.23;0.80;;;7.80;99.90;;;;;;5104501;28;20631;-90
2021/05/05 01:28:29;;;;;;;2.00;1.27;;;7.80;99.90;;;;;;5106651;28;20626;-90
2021/05/05 01:30:55;;;;;;;2.17;1.23;;;7.80;99.90;;;;;;5108495;28;20670;-90
2021/05/05 01:33:23;;;;;;;2.10;1.10;;;7.80;99.90;;;;;;5110297;28;21005;-89
2021/05/05 01:35:51;;;;;;;2.60;1.60;;;7.80;99.90;;;;;;5111552;27;20611;-90
2021/05/05 01:38:19;;;;;;;1.67;1.00;;;7.80;99.90;;;;;;5106220;27;20691;-90
2021/05/05 01:40:45;;;;;;;1.60;0.93;;;7.90;99.90;;;;;;5111667;27;20655;-90
2021/05/05 01:43:12;;;;;;;1.53;0.97;;;7.90;99.90;;;;;;5110910;28;20726;-90
2021/05/05 01:45:39;;;;;;;1.53;1.00;;;7.80;99.90;;;;;;5110010;28;20991;-91
2021/05/05 01:48:08;;;;;;;3.03;1.50;;;7.80;99.90;;;;;;5107148;28;20654;-89
2021/05/05 01:50:36;;;;;;;2.60;1.20;;;7.80;99.90;;;;;;5108622;28;20635;-90
2021/05/05 01:53:03;;;;;;;1.53;1.13;;;7.70;99.90;;;;;;5108587;27;21114;-89
2021/05/05 01:55:31;;;;;;;1.67;1.50;;;7.70;99.90;;;;;;5104896;28;20633;-89
2021/05/05 01:57:57;;;;;;;4.23;1.47;;;7.60;99.90;;;;;;5106694;28;21058;-89
2021/05/05 02:00:25;;;;;;;1.93;1.23;;;7.70;99.90;;;;;;5106656;28;20720;-89
2021/05/05 02:02:51;;;;;;;3.27;1.60;;;7.70;99.90;;;;;;5110912;28;20611;-89
2021/05/05 02:05:17;;;;;;;2.50;1.07;;;7.80;99.90;;;;;;5123849;28;20701;-89
2021/05/05 02:07:44;;;;;;;3.00;1.23;;;7.80;99.90;;;;;;5133039;27;20667;-88
2021/05/05 02:10:13;;;;;;;3.00;1.20;;;7.70;99.90;;;;;;5129842;28;20728;-89
2021/05/05 02:12:40;;;;;;;2.00;1.20;;;7.70;99.90;;;;;;5126571;28;20666;-90
2021/05/05 02:15:09;;;;;;;1.70;1.03;;;7.80;99.90;;;;;;5127625;28;20870;-89
2021/05/05 02:17:36;;;;;;;3.37;1.17;;;7.70;99.90;;;;;;5130283;28;20607;-90
2021/05/05 02:20:04;;;;;;;1.77;0.90;;;7.70;99.90;;;;;;5135568;27;20684;-90
2021/05/05 02:22:30;;;;;;;5.30;1.43;;;7.70;99.90;;;;;;5137441;27;20619;-89
2021/05/05 02:24:56;;;;;;;2.10;0.90;;;7.70;99.90;;;;;;5134091;28;20679;-90
2021/05/05 02:27:22;;;;;;;2.27;1.40;;;7.60;99.90;;;;;;5132575;28;20738;-88
2021/05/05 02:29:50;;;;;;;2.10;1.13;;;7.70;99.90;;;;;;5129790;28;20662;-89
2021/05/05 02:32:19;;;;;;;1.60;1.10;;;7.70;99.90;;;;;;5134027;28;20626;-90
2021/05/05 02:34:46;;;;;;;1.77;0.80;;;7.70;99.90;;;;;;5133578;28;20694;-89
2021/05/05 02:37:12;;;;;;;3.93;0.90;;;7.70;99.90;;;;;;5129120;28;20600;-88
2021/05/05 02:42:21;;;;;;;2.03;1.30;;;7.60;99.90;;;;;;5120986;27;20663;-89
2021/05/05 02:44:49;;;;;;;2.03;1.33;;;7.70;99.90;;;;;;5127438;28;20624;-89
2021/05/05 02:47:20;;;;;;;3.33;1.10;;;7.70;99.90;;;;;;5132135;28;20750;-89
2021/05/05 02:49:46;;;;;;;2.50;1.30;;;7.70;99.90;;;;;;5134386;28;20627;-89
2021/05/05 02:52:12;;;;;;;4.13;1.30;;;7.60;99.90;;;;;;5131971;28;20670;-88
2021/05/05 02:54:39;;;;;;;1.40;0.90;;;7.50;99.90;;;;;;5131146;28;20731;-89
2021/05/05 02:57:06;;;;;;;1.87;1.30;;;7.60;99.90;;;;;;5133238;27;20604;-89
2021/05/05 02:59:33;;;;;;;2.73;1.50;;;7.60;99.90;;;;;;5131198;27;20639;-88
2021/05/05 03:02:00;;;;;;;2.27;1.20;;;7.70;99.90;;;;;;5133436;28;20632;-89
2021/05/05 03:04:27;;;;;;;2.90;1.00;;;7.70;99.90;;;;;;5131860;28;20619;-89
2021/05/05 03:06:54;;;;;;;2.03;1.17;;;7.60;99.90;;;;;;5128298;28;20666;-88
2021/05/05 03:09:25;;;;;;;2.17;1.20;;;7.50;99.90;;;;;;5126112;28;20687;-89
2021/05/05 03:11:53;;;;;;;2.90;1.03;;;7.70;99.90;;;;;;5133876;28;20591;-90
2021/05/05 03:14:19;;;;;;;2.80;0.80;;;7.70;99.90;;;;;;5133184;28;20612;-89
2021/05/05 03:16:45;;;;;;;1.20;1.10;;;7.60;99.90;;;;;;5130677;28;20669;-90
2021/05/05 03:19:14;;;;;;;2.00;0.87;;;7.70;99.90;;;;;;5133397;28;20587;-90
2021/05/05 03:21:43;;;;;;;2.67;1.10;;;7.70;99.90;;;;;;5130996;28;20872;-89
2021/05/05 03:24:10;;;;;;;1.47;0.80;;;7.70;99.90;;;;;;5111658;28;20654;-91
2021/05/05 03:26:37;;;;;;;1.60;0.90;;;7.80;99.90;;;;;;5129688;28;20674;-88
2021/05/05 03:29:04;;;;;;;2.73;0.83;;;7.70;99.90;;;;;;5130363;28;20619;-89
2021/05/05 03:31:30;;;;;;;2.10;0.77;;;7.70;99.90;;;;;;5124565;28;20676;-89
2021/05/05 03:33:57;;;;;;;1.90;1.10;;;7.60;99.90;;;;;;5124350;28;20623;-91
2021/05/05 03:36:25;;;;;;;1.33;0.90;;;7.70;99.90;;;;;;5127467;28;20611;-91
2021/05/05 03:38:52;;;;;;;1.70;0.87;;;7.60;99.90;;;;;;5121383;28;20623;-89
2021/05/05 03:41:19;;;;;;;2.00;1.00;;;7.60;99.90;;;;;;5120617;28;20651;-90
2021/05/05 03:43:45;;;;;;;1.67;1.57;;;7.60;99.90;;;;;;5115990;28;20627;-88
2021/05/05 03:46:11;;;;;;;3.87;1.50;;;7.50;99.90;;;;;;5121022;28;20622;-88
2021/05/05 03:48:38;;;;;;;2.50;1.40;;;7.50;99.90;;;;;;5124239;28;20677;-91
2021/05/05 03:51:05;;;;;;;2.67;1.50;;;7.50;99.90;;;;;;5131178;28;20607;-91
2021/05/05 03:53:32;;;;;;;5.67;1.70;;;7.60;99.90;;;;;;5130060;27;20611;-91
2021/05/05 03:56:07;;;;;;;1.50;1.27;;;7.50;99.90;;;;;;5130879;28;20611;-91
2021/05/05 03:58:34;;;;;;;2.10;1.30;;;7.50;99.90;;;;;;5131223;28;20676;-91
2021/05/05 04:01:00;;;;;;;3.33;1.00;;;7.50;99.90;;;;;;5131274;28;20742;-92
2021/05/05 04:03:27;;;;;;;1.73;0.70;;;7.50;99.90;;;;;;5133352;28;20682;-91
2021/05/05 04:05:53;;;;;;;1.50;0.90;;;7.40;99.90;;;;;;5128794;28;20620;-92
2021/05/05 04:08:22;;;;;;;1.50;0.97;;;7.40;99.90;;;;;;5117032;28;20670;-92
2021/05/05 04:10:50;;;;;;;1.87;1.10;;;7.40;99.90;;;;;;5123071;28;20627;-91
2021/05/05 04:13:16;;;;;;;1.47;0.90;;;7.50;99.90;;;;;;5121528;28;20644;-90
2021/05/05 04:15:42;;;;;;;1.60;0.90;;;7.60;99.90;;;;;;5127684;28;20600;-90
2021/05/05 04:18:09;;;;;;;1.70;1.23;;;7.60;99.90;;;;;;5127481;28;20655;-90
2021/05/05 04:20:35;;;;;;;1.83;1.13;;;7.50;99.90;;;;;;5124053;28;20620;-90
2021/05/05 04:23:02;;;;;;;1.70;1.10;;;7.60;99.90;;;;;;5124463;27;20611;-92
2021/05/05 04:25:32;;;;;;;1.67;1.30;;;7.70;99.90;;;;;;5130118;28;20623;-92
2021/05/05 04:28:02;;;;;;;2.00;1.00;;;7.80;99.90;;;;;;5123648;28;20675;-91
2021/05/05 04:30:32;;;;;;;2.60;1.87;;;7.70;99.90;;;;;;5125813;28;20634;-90
2021/05/05 04:33:07;;;;;;;2.00;1.50;;;7.70;99.90;;;;;;5111414;28;20620;-91
2021/05/05 04:38:16;;;;;;;1.70;1.10;;;7.70;99.90;;;;;;5105911;28;20650;-91
2021/05/05 04:40:46;;;;;;;1.33;0.93;;;7.80;99.90;;;;;;5108472;28;20634;-89
2021/05/05 04:43:17;;;;;;;3.40;1.30;;;7.80;99.90;;;;;;5106965;28;20634;-91
2021/05/05 04:45:47;;;;;;;2.63;1.00;;;7.80;99.90;;;;;;5107934;28;20630;-90
2021/05/05 04:48:13;;;;;;;0.77;0.60;;;7.80;99.90;;;;;;5102818;28;20689;-89
2021/05/05 04:50:40;;;;;;;1.90;1.20;;;7.70;99.90;;;;;;5108997;28;20718;-89
2021/05/05 04:53:07;;;;;;;3.07;1.30;;;7.70;99.90;;;;;;5108423;28;20691;-89
2021/05/05 04:55:34;;;;;;;2.40;2.20;;;7.60;99.90;;;;;;5106618;28;21189;-90
2021/05/05 04:58:00;;;;;;;1.73;1.40;;;7.60;99.90;;;;;;5104831;28;20664;-90
2021/05/05 05:00:28;;;;;;;1.60;1.37;;;7.60;99.90;;;;;;5106766;28;21106;-90
2021/05/05 05:02:54;;;;;;;2.47;1.73;;;7.50;99.90;;;;;;5109572;28;20631;-91
2021/05/05 05:05:22;;;;;;;2.53;2.33;;;7.70;99.90;;;;;;5110017;28;20619;-91
2021/05/05 05:07:48;;;;;;;1.13;0.80;;;7.70;99.90;;;;;;5106276;28;20714;-90
2021/05/05 05:10:15;;;;;;;2.07;0.80;;;7.60;99.90;;;;;;5109110;28;21036;-92
2021/05/05 05:12:42;;;;;;;1.60;1.43;;;7.60;99.90;;;;;;5106704;28;20989;-93
2021/05/05 05:15:09;;;;;;;2.10;0.83;;;7.60;99.90;;;;;;5109438;28;20656;-93
2021/05/05 05:17:36;;;;;;;2.20;0.87;;;7.50;99.90;;;;;;5107478;28;20662;-92
2021/05/05 05:20:06;;;;;;;1.13;0.93;;;7.50;99.90;;;;;;5113998;28;20726;-91
2021/05/05 05:22:35;;;;;;;1.77;1.40;;;7.60;99.90;;;;;;5116237;27;20646;-90
2021/05/05 05:25:03;;;;;;;4.47;2.40;;;7.60;99.90;;;;;;5111660;28;20627;-90
2021/05/05 05:27:29;;;;;;;1.40;1.00;;;7.70;99.90;;;;;;5113119;28;20667;-90
2021/05/05 05:30:06;;;;;;;1.93;1.00;;;7.70;99.90;;;;;;5113957;28;21069;-91
2021/05/05 05:35:48;;;;;;;1.30;0.67;;;7.70;99.90;;;;;;5088454;28;20595;-89
2021/05/05 05:38:16;;;;;;;1.17;0.90;;;7.80;99.90;;;;;;5110419;27;20647;-91
2021/05/05 05:40:43;;;;;;;1.00;0.67;;;7.70;99.90;;;;;;5118713;28;20625;-91
2021/05/05 05:43:09;;;;;;;1.00;0.80;;;7.80;99.90;;;;;;5115820;28;21035;-92
2021/05/05 05:45:36;;;;;;;1.10;0.67;;;7.80;99.90;;;;;;5117121;28;20699;-91
2021/05/05 05:48:05;;;;;;;3.47;1.17;;;7.90;99.90;;;;;;5115540;27;20736;-91
2021/05/05 05:50:32;;;;;;;1.40;0.70;;;7.90;99.90;;;;;;5113421;27;20792;-91
2021/05/05 05:53:06;;;;;;;2.20;1.20;;;7.90;99.90;;;;;;5108494;28;20695;-91
2021/05/05 05:55:34;;;;;;;1.83;1.00;;;8.00;99.90;;;;;;5112649;28;21013;-90
2021/05/05 05:58:03;;;;;;;1.37;0.60;;;7.90;99.90;;;;;;5105928;27;20655;-91
2021/05/05 06:00:29;;;;;;;1.13;1.03;;;7.80;99.90;;;;;;5107744;27;21049;-90
2021/05/05 06:02:56;;;;;;;1.57;0.93;;;7.90;99.90;;;;;;5114786;28;20755;-89
2021/05/05 06:05:22;;;;;;;2.33;1.30;;;8.00;99.90;;;;;;5109896;28;21036;-89
2021/05/05 06:07:49;;;;;;;1.43;0.60;;;8.00;99.90;;;;;;5109987;28;20678;-91
2021/05/05 06:10:16;;;;;;;0.80;0.60;;;8.00;99.90;;;;;;5112711;28;20631;-89
2021/05/05 06:12:42;;;;;;;2.20;1.20;;;8.10;99.90;;;;;;5111844;28;20637;-89
2021/05/05 06:15:10;;;;;;;2.07;1.50;;;8.10;99.90;;;;;;5112554;27;20616;-90
2021/05/05 06:17:37;;;;;;;0.90;0.70;;;8.10;99.90;;;;;;5106488;28;20651;-88
2021/05/05 06:20:05;;;;;;;2.27;0.90;;;8.10;99.90;;;;;;5107989;28;20646;-85
2021/05/05 06:22:31;;;;;;;1.73;0.90;;;8.20;99.90;;;;;;5111065;27;20636;-89
2021/05/05 06:25:00;;;;;;;2.43;1.10;;;8.20;99.90;;;;;;5108826;27;20627;-88
2021/05/05 06:27:28;;;;;;;1.90;0.90;;;8.30;99.90;;;;;;5108695;27;20721;-87
2021/05/05 06:29:54;;;;;;;2.53;1.40;;;8.40;99.90;;;;;;5110112;28;20990;-87
2021/05/05 06:32:20;;;;;;;2.83;1.40;;;8.40;99.90;;;;;;5106400;27;20631;-87
2021/05/05 06:34:46;;;;;;;1.47;0.80;;;8.50;99.90;;;;;;5106252;28;20631;-86
2021/05/05 06:37:15;;;;;;;2.30;1.20;;;8.40;99.90;;;;;;5105359;28;20623;-88
2021/05/05 06:39:41;;;;;;;1.90;1.30;;;8.50;99.90;;;;;;5107671;28;20682;-87
2021/05/05 06:42:07;;;;;;;3.73;1.60;;;8.50;99.90;;;;;;5108786;28;21246;-87
2021/05/05 06:44:35;;;;;;;1.63;1.40;;;8.60;99.90;;;;;;5109585;28;20681;-87
2021/05/05 06:47:01;;;;;;;1.77;1.27;;;8.60;99.90;;;;;;5104098;28;20662;-88
2021/05/05 06:49:28;;;;;;;2.80;1.40;;;8.70;99.90;;;;;;5103258;28;20654;-88
2021/05/05 06:51:55;;;;;;;4.10;1.73;;;8.80;99.90;;;;;;5106526;28;20655;-88
2021/05/05 06:54:21;;;;;;;3.10;2.00;;;8.90;99.90;;;;;;5103784;28;20631;-88
2021/05/05 06:56:48;;;;;;;3.17;1.80;;;8.90;99.90;;;;;;5107692;28;21051;-88
2021/05/05 06:59:14;;;;;;;5.33;1.90;;;9.00;99.90;;;;;;5109934;28;20654;-87
2021/05/05 07:01:41;;;;;;;2.90;1.70;;;9.10;99.90;;;;;;5109303;28;21021;-87
2021/05/05 07:04:08;;;;;;;2.37;1.40;;;9.00;99.90;;;;;;5106419;27;20627;-87
2021/05/05 07:06:35;;;;;;;4.27;1.90;;;9.00;99.90;;;;;;5109728;28;20687;-87
2021/05/05 07:09:02;;;;;;;4.30;1.93;;;9.00;99.90;;;;;;5109340;28;20630;-87
2021/05/05 07:11:32;;;;;;;2.23;1.50;;;9.10;99.90;;;;;;5099900;28;20649;-90
2021/05/05 07:13:58;;;;;;;4.33;1.83;;;9.10;99.90;;;;;;5108347;28;20657;-89
2021/05/05 07:16:27;;;;;;;2.73;1.60;;;9.20;99.90;;;;;;5108583;28;21184;-89
2021/05/05 07:18:54;;;;;;;5.90;2.07;;;9.30;99.90;;;;;;5107150;28;20642;-90
2021/05/05 07:21:21;;;;;;;6.13;1.67;;;9.40;99.90;;;;;;5109214;28;21219;-88
2021/05/05 07:23:48;;;;;;;3.30;1.40;;;9.60;99.90;;;;;;5110540;28;20611;-89
2021/05/05 07:26:15;;;;;;;3.40;1.67;;;9.70;99.90;;;;;;5108016;28;20663;-88
2021/05/05 07:28:42;;;;;;;4.90;2.03;;;9.80;99.90;;;;;;5108659;28;20717;-89
2021/05/05 07:31:08;;;;;;;5.20;1.80;;;9.70;99.90;;;;;;5106832;28;20663;-89
2021/05/05 07:33:36;;;;;;;3.40;1.60;;;9.70;99.90;;;;;;5104663;28;20635;-89
2021/05/05 07:36:06;;;;;;;4.00;2.03;;;9.90;99.90;;;;;;5105130;28;20635;-90
2021/05/05 07:38:48;;;;;;;4.13;1.87;;;9.90;99.90;;;;;;5106772;28;20742;-89
2021/05/05 07:47:00;;;;;;;4.07;1.60;;;9.70;99.90;;;;;;5106839;28;20672;-87
2021/05/05 07:49:27;;;;;;;2.70;1.50;;;9.40;99.90;;;;;;5103788;28;20635;-88
2021/05/05 07:51:54;;;;;;;3.97;2.17;;;9.30;99.90;;;;;;5108291;27;20646;-90
2021/05/05 07:54:22;;;;;;;7.07;1.87;;;9.30;99.90;;;;;;5107668;28;20653;-90
2021/05/05 07:56:49;;;;;;;5.73;2.00;;;9.50;99.90;;;;;;5112464;27;20770;-88
2021/05/05 07:59:16;;;;;;;4.30;1.70;;;9.70;99.90;;;;;;5106795;28;21092;-89
2021/05/05 08:01:42;;;;;;;3.30;1.37;;;9.50;99.90;;;;;;5106958;28;20969;-90
2021/05/05 08:04:09;;;;;;;4.97;1.80;;;9.40;99.90;;;;;;5109678;28;20623;-90
2021/05/05 08:06:35;;;;;;;2.90;1.50;;;9.30;99.90;;;;;;5110135;28;20641;-89
2021/05/05 08:09:06;;;;;;;3.73;1.90;;;9.60;99.70;;;;;;5106734;28;20757;-89
2021/05/05 08:11:32;;;;;;;3.13;2.07;;;9.90;98.70;;;;;;5108852;28;20623;-89
2021/05/05 08:14:00;;;;;;;6.90;2.13;;;9.90;96.90;;;;;;5109060;28;20642;-88
2021/05/05 08:16:26;;;;;;;3.10;1.60;;;10.00;96.50;;;;;;5105245;28;20614;-88
2021/05/05 08:18:54;;;;;;;4.67;1.50;;;10.10;94.30;;;;;;5108682;28;20612;-89
2021/05/05 08:21:22;;;;;;;5.67;1.50;;;10.30;94.30;;;;;;5111425;28;20631;-88
2021/05/05 08:23:48;;;;;;;3.43;1.73;;;10.40;93.80;;;;;;5112601;28;21168;-89
2021/05/05 08:26:19;;;;;;;6.90;1.50;;;10.40;94.20;;;;;;5111204;28;20604;-89
2021/05/05 08:28:46;;;;;;;4.17;2.13;;;10.30;94.80;;;;;;5109510;28;20696;-88
2021/05/05 08:31:12;;;;;;;4.20;1.57;;;10.30;93.40;;;;;;5106703;28;20646;-88
2021/05/05 08:33:39;;;;;;;2.27;1.50;;;10.00;93.70;;;;;;5109880;28;20627;-88
2021/05/05 08:36:05;;;;;;;4.83;1.53;;;9.90;94.90;;;;;;5105985;28;20661;-88
2021/05/05 08:38:32;;;;;;;3.93;1.33;;;9.90;96.20;;;;;;5107485;28;20621;-89
2021/05/05 08:40:59;;;;;;;4.23;1.80;;;10.20;95.60;;;;;;5112453;28;20682;-86
2021/05/05 08:43:26;;;;;;;2.03;1.20;;;10.60;94.40;;;;;;5108497;28;20755;-87
2021/05/05 08:45:58;;;;;;;2.23;1.30;;;10.40;94.40;;;;;;5106372;28;20744;-87
2021/05/05 08:48:25;;;;;;;3.43;1.93;;;10.30;94.90;;;;;;5103866;28;21075;-86
2021/05/05 08:50:52;;;;;;;3.70;1.40;;;10.30;95.60;;;;;;5108799;28;21164;-87
2021/05/05 08:53:18;;;;;;;6.20;1.73;;;10.30;95.50;;;;;;5108608;28;20630;-87
2021/05/05 08:55:45;;;;;;;3.73;1.37;;;10.30;95.30;;;;;;5115306;27;20638;-86
2021/05/05 08:58:11;;;;;;;4.83;2.67;;;10.30;93.20;;;;;;5117361;27;20626;-87
2021/05/05 09:00:39;;;;;;;5.07;1.90;;;10.30;92.40;;;;;;5112961;28;20762;-86
2021/05/05 09:03:07;;;;;;;6.77;2.10;;;10.30;93.20;;;;;;5113586;28;20651;-86
2021/05/05 09:05:53;;;;;;;2.93;1.23;;;10.40;93.40;;;;;;5108336;28;20818;-85
2021/05/05 09:08:21;;;;;;;3.57;1.40;;;10.10;93.00;;;;;;5110606;28;20676;-86
2021/05/05 09:11:00;;;;;;;5.23;1.50;;;10.60;93.20;;;;;;5107498;28;20654;-87
2021/05/05 09:13:48;;;;;;;3.13;1.33;;;11.00;93.20;;;;;;5096621;28;21328;-86
2021/05/05 09:16:16;;;;;;;4.87;1.53;;;11.40;91.40;;;;;;5111609;28;20626;-86
2021/05/05 09:19:01;;;;;;;2.40;1.63;;;11.30;91.70;;;;;;5112272;28;21146;-87
2021/05/05 09:21:32;;;;;;;2.40;1.10;;;11.10;92.70;;;;;;5111294;27;20623;-88
2021/05/05 09:24:20;;;;;;;4.73;1.87;;;10.80;92.70;;;;;;5113553;28;20695;-86
2021/05/05 09:26:48;;;;;;;5.20;1.57;;;10.90;93.40;;;;;;5107457;27;20638;-87
2021/05/05 09:29:18;;;;;;;7.83;1.30;;;11.50;93.30;;;;;;5113546;27;21264;-87
2021/05/05 09:31:49;;;;;;;2.10;1.23;;;11.70;91.70;;;;;;5113410;27;20710;-87
2021/05/05 09:34:15;;;;;;;3.43;1.60;;;11.90;90.00;;;;;;5106336;28;20630;-88
2021/05/05 09:36:55;;;;;;;1.70;1.10;;;11.80;90.50;;;;;;5109960;28;21087;-88
2021/05/05 09:39:26;;;;;;;3.50;1.10;;;11.40;91.40;;;;;;5107911;27;20696;-88
2021/05/05 09:41:54;;;;;;;3.30;1.17;;;11.20;89.50;;;;;;5108482;28;20633;-88
2021/05/05 09:44:20;;;;;;;8.43;1.63;;;11.10;86.90;;;;;;5110079;28;20638;-87
2021/05/05 09:46:50;;;;;;;3.27;1.10;;;10.80;90.40;;;;;;5106531;28;20622;-87
2021/05/05 09:49:29;;;;;;;1.70;1.23;;;11.00;91.10;;;;;;5105751;28;21180;-88
2021/05/05 09:51:58;;;;;;;2.80;1.50;;;11.00;92.00;;;;;;5105662;28;20616;-88
2021/05/05 09:54:27;;;;;;;3.60;1.70;;;11.10;92.20;;;;;;5110237;27;20708;-88
2021/05/05 09:57:11;;;;;;;2.93;1.50;;;11.00;92.90;;;;;;5106726;27;20885;-89
2021/05/05 09:59:59;;;;;;;5.50;1.87;;;11.40;92.90;;;;;;5107456;28;20733;-89
2021/05/05 10:02:29;;;;;;;3.53;1.40;;;11.50;92.00;;;;;;5110541;28;20657;-88
2021/05/05 10:05:04;;;;;;;2.60;1.13;;;11.10;91.20;;;;;;5122013;28;20626;-87
2021/05/05 10:07:56;;;;;;;5.80;1.60;;;11.70;90.80;;;;;;5127817;28;20654;-88
2021/05/05 10:10:24;;;;;;;3.77;1.50;;;11.70;87.90;;;;;;5127031;28;21296;-87
2021/05/05 10:12:52;;;;;;;5.57;1.60;;;12.10;81.50;;;;;;5124974;27;20631;-87
2021/05/05 10:15:20;;;;;;;2.93;1.20;;;12.60;83.70;;;;;;5126723;28;21171;-89
2021/05/05 10:17:52;;;;;;;4.67;1.20;;;12.50;80.60;;;;;;5130121;28;20610;-88
2021/05/05 10:20:22;;;;;;;2.10;1.17;;;12.20;75.10;;;;;;5127709;28;20627;-88
2021/05/05 10:22:54;;;;;;;5.50;1.40;;;12.10;79.40;;;;;;5128940;28;20687;-89
2021/05/05 10:25:21;;;;;;;4.57;1.50;;;12.30;80.10;;;;;;5113171;28;20662;-89
2021/05/05 10:27:48;;;;;;;2.37;1.27;;;12.30;79.10;;;;;;5108100;28;20659;-87
2021/05/05 10:30:18;;;;;;;2.30;1.07;;;11.80;77.20;;;;;;5106849;28;20631;-88
2021/05/05 10:32:45;;;;;;;2.67;1.13;;;12.30;77.90;;;;;;5107560;28;20614;-88
2021/05/05 10:35:17;;;;;;;5.13;1.90;;;12.50;78.40;;;;;;5110319;27;20740;-88
2021/05/05 10:37:46;;;;;;;2.57;1.13;;;12.50;76.70;;;;;;5109715;28;20623;-88
2021/05/05 10:40:22;;;;;;;4.77;1.40;;;12.50;71.90;;;;;;5109710;28;20676;-89
2021/05/05 10:42:50;;;;;;;1.90;0.97;;;13.10;73.80;;;;;;5107692;28;20619;-89
2021/05/05 10:45:31;;;;;;;4.70;1.20;;;13.30;72.80;;;;;;5108949;28;21312;-88
2021/05/05 10:48:07;;;;;;;2.57;1.30;;;12.80;71.90;;;;;;5110870;28;20651;-88
2021/05/05 10:50:59;;;;;;;2.67;1.00;;;12.80;70.90;;;;;;5110583;28;21001;-88
2021/05/05 10:53:27;;;;;;;2.83;1.30;;;12.40;74.10;;;;;;5108932;28;20726;-89
2021/05/05 10:55:57;;;;;;;3.27;1.23;;;12.50;77.80;;;;;;5106579;28;20647;-88
2021/05/05 10:58:27;;;;;;;4.27;1.00;;;12.20;74.50;;;;;;5111383;27;21232;-89
2021/05/05 11:01:03;;;;;;;2.57;0.90;;;11.70;74.70;;;;;;5107491;28;20717;-88
2021/05/05 11:04:14;;;;;;;1.50;0.90;;;10.10;96.10;;;;;;5112538;28;20611;-89
2021/05/05 11:06:53;;;;;;;1.00;0.60;;;8.50;99.90;;;;;;5106753;27;20646;-92
2021/05/05 11:09:45;;;;;;;1.80;1.20;;;7.60;99.90;;;;;;5107632;28;21569;-88
2021/05/05 11:12:46;;;;;;;2.37;1.30;;;6.90;99.90;;;;;;5109866;28;20627;-90
2021/05/05 11:15:54;;;;;;;1.60;1.10;;;6.20;99.90;;;;;;5114649;27;20658;-90
2021/05/05 11:18:45;;;;;;;2.00;1.17;;;6.10;99.90;;;;;;5108132;28;20651;-91
2021/05/05 11:21:44;;;;;;;2.40;1.03;;;5.90;99.90;;;;;;5111676;28;20634;-90
2021/05/05 11:24:34;;;;;;;1.67;0.90;;;6.20;99.90;;;;;;5118707;28;20689;-88
2021/05/05 11:27:03;;;;;;;2.20;0.90;;;6.50;99.90;;;;;;5130012;28;20623;-89
2021/05/05 11:29:31;;;;;;;1.47;1.33;;;6.70;99.90;;;;;;5134175;27;20637;-91
2021/05/05 11:32:04;;;;;;;2.27;1.10;;;7.00;99.90;;;;;;5130501;28;20699;-89
2021/05/05 11:34:33;;;;;;;1.80;1.70;;;7.20;99.90;;;;;;5133125;28;20642;-90
2021/05/05 11:37:12;;;;;;;1.53;0.77;;;7.40;99.90;;;;;;5127629;28;20704;-89
2021/05/05 11:39:43;;;;;;;2.27;0.90;;;7.60;99.90;;;;;;5126859;28;21185;-89
2021/05/05 11:42:13;;;;;;;1.23;0.77;;;7.80;99.90;;;;;;5120598;28;20625;-89
2021/05/05 11:44:44;;;;;;;1.43;0.63;;;8.10;99.90;;;;;;5126508;28;20655;-88
2021/05/05 11:47:13;;;;;;;1.30;1.00;;;8.50;99.90;;;;;;5124743;28;20646;-88
2021/05/05 11:49:42;;;;;;;0.93;0.70;;;8.60;99.90;;;;;;5117447;28;20604;-88
2021/05/05 11:52:30;;;;;;;1.20;0.80;;;8.50;99.90;;;;;;5113549;28;20619;-90
2021/05/05 11:54:59;;;;;;;1.47;1.10;;;8.50;99.90;;;;;;5110109;28;20654;-89
2021/05/05 11:57:29;;;;;;;1.23;0.53;;;9.50;99.90;;;;;;5105033;28;20713;-89
2021/05/05 12:00:08;;;;;;;2.13;0.90;;;10.20;99.90;;;;;;5105066;28;20600;-91
2021/05/05 12:02:43;;;;;;;1.80;0.80;;;10.70;99.90;;;;;;5111826;28;20687;-90
2021/05/05 12:05:29;;;;;;;1.67;0.90;;;10.80;99.90;;;;;;5114236;27;20655;-90
2021/05/05 12:08:04;;;;;;;1.90;1.40;;;10.40;99.90;;;;;;5104687;28;21413;-90
2021/05/05 12:10:41;;;;;;;2.07;1.00;;;10.10;99.90;;;;;;5110715;28;20933;-88
2021/05/05 12:13:08;;;;;;;2.67;1.20;;;9.80;99.90;;;;;;5109391;28;20619;-89
2021/05/05 12:15:38;;;;;;;1.97;0.83;;;9.80;99.90;;;;;;5109380;28;20658;-89
2021/05/05 12:18:17;;;;;;;1.77;0.73;;;10.00;99.90;;;;;;5111637;28;20618;-88
2021/05/05 12:20:47;;;;;;;5.43;1.20;;;10.40;99.80;;;;;;5108130;28;20653;-89
2021/05/05 12:23:16;;;;;;;2.10;0.97;;;11.80;97.80;;;;;;5109245;28;20687;-90
2021/05/05 12:25:44;;;;;;;2.00;1.07;;;12.20;95.60;;;;;;5105351;28;20664;-90
2021/05/05 12:28:15;;;;;;;2.40;1.50;;;13.10;94.70;;;;;;5106742;28;20661;-87
2021/05/05 12:30:50;;;;;;;2.10;0.90;;;13.40;94.40;;;;;;5110666;28;20645;-88
2021/05/05 12:33:21;;;;;;;2.70;1.20;;;13.70;92.80;;;;;;5111291;27;21091;-87
2021/05/05 12:35:48;;;;;;;3.03;1.03;;;13.80;92.30;;;;;;5111465;28;20659;-88
2021/05/05 12:38:20;;;;;;;1.63;0.90;;;13.80;91.70;;;;;;5105680;27;20675;-88
2021/05/05 12:40:48;;;;;;;2.20;1.10;;;13.70;91.30;;;;;;5109307;28;20646;-90
2021/05/05 12:43:21;;;;;;;1.70;0.80;;;12.80;92.70;;;;;;5114998;27;20630;-90
2021/05/05 12:45:50;;;;;;;4.33;0.90;;;12.60;93.20;;;;;;5115807;27;20662;-88
2021/05/05 12:48:27;;;;;;;2.97;0.97;;;11.80;94.20;;;;;;5114700;28;20707;-89
2021/05/05 12:50:54;;;;;;;0.90;0.50;;;11.10;94.90;;;;;;5111445;28;21358;-89
2021/05/05 12:53:22;;;;;;;1.30;0.80;;;10.70;91.20;;;;;;5112818;28;20629;-90
2021/05/05 12:55:58;;;;;;;1.80;0.90;;;10.00;96.70;;;;;;5111379;28;21027;-91
2021/05/05 12:58:25;;;;;;;1.80;0.60;;;9.20;99.90;;;;;;5108514;27;20635;-90
2021/05/05 13:00:52;;;;;;;1.90;0.93;;;8.70;99.90;;;;;;5112862;28;20623;-90
2021/05/05 13:03:22;;;;;;;0.87;0.70;;;8.70;99.90;;;;;;5107189;27;21651;-90
2021/05/05 13:06:01;;;;;;;2.20;0.90;;;9.10;99.90;;;;;;5112602;28;20659;-89
2021/05/05 13:08:41;;;;;;;1.00;0.63;;;10.60;99.80;;;;;;5110890;27;20739;-89
2021/05/05 13:11:10;;;;;;;1.10;0.87;;;11.70;97.70;;;;;;5111993;27;21029;-90
2021/05/05 13:13:48;;;;;;;0.93;0.77;;;12.90;95.50;;;;;;5112949;27;20616;-90
2021/05/05 13:19:23;;;;;;;1.60;0.77;;;15.00;89.50;;;;;;5115052;27;20611;-90
2021/05/05 13:30:21;;;;;;;4.57;1.03;;;14.90;79.20;;;;;;5115281;27;20590;-89